Time;durP1;ratioP1;P1;durP2;ratioP2;P2;SDS_P1;SDS_P2;PMS_P1;PMS_P2;Temp;Humidity;BMP_temperature;BMP_pressure;BME280_temperature;BME280_humidity;BME280_pressure;Samples;Min_cycle;Max_cycle;Signal;HPM_P1;HPM_P2
2024/01/04 00:01:12;;;;;;;3.75;1.02;;;10.90;99.90;;;;;;5050338;28;20664;-73
2024/01/04 00:03:39;;;;;;;3.35;0.80;;;10.60;99.90;;;;;;5035863;28;20079;-75
2024/01/04 00:06:05;;;;;;;3.53;1.15;;;9.70;99.20;;;;;;5051224;28;20072;-74
2024/01/04 00:08:30;;;;;;;3.10;1.20;;;10.00;92.20;;;;;;5034430;28;20099;-73
2024/01/04 00:10:57;;;;;;;4.40;1.20;;;10.70;80.60;;;;;;5030972;28;20045;-72
2024/01/04 00:13:23;;;;;;;3.83;1.00;;;10.80;80.80;;;;;;5051189;28;20041;-72
2024/01/04 00:15:48;;;;;;;2.83;0.93;;;9.70;72.10;;;;;;5034516;28;20518;-72
2024/01/04 00:18:14;;;;;;;3.45;0.93;;;9.70;67.50;;;;;;5034104;28;20468;-74
2024/01/04 00:20:39;;;;;;;5.50;1.20;;;10.80;22.10;;;;;;5050384;28;20048;-72
2024/01/04 00:23:05;;;;;;;3.95;1.13;;;10.60;28.70;;;;;;5034529;28;20073;-72
2024/01/04 00:25:31;;;;;;;2.08;1.00;;;10.70;33.60;;;;;;5018091;28;20041;-73
2024/01/04 00:27:56;;;;;;;3.47;1.02;;;9.80;16.30;;;;;;5067493;28;20051;-75
2024/01/04 00:30:22;;;;;;;4.03;1.15;;;10.00;9.00;;;;;;5031337;28;20037;-75
2024/01/04 00:32:48;;;;;;;4.18;1.17;;;10.70;20.50;;;;;;5033891;28;20060;-73
2024/01/04 00:35:14;;;;;;;3.20;1.00;;;10.70;18.90;;;;;;5050789;28;20052;-72
2024/01/04 00:37:39;;;;;;;3.80;1.27;;;10.60;10.90;;;;;;5034361;28;20124;-72
2024/01/04 00:40:06;;;;;;;4.63;1.35;;;10.20;18.50;;;;;;5034155;28;20028;-75
2024/01/04 00:42:32;;;;;;;3.08;1.20;;;9.70;1.00;;;;;;5049736;28;20071;-72
2024/01/04 00:44:57;;;;;;;4.28;1.05;;;10.40;1.00;;;;;;5050769;28;20558;-74
2024/01/04 00:47:23;;;;;;;5.65;1.30;;;9.80;1.00;;;;;;5050548;28;20048;-72
2024/01/04 00:49:48;;;;;;;4.47;1.20;;;9.80;1.00;;;;;;5050996;28;20076;-73
2024/01/04 00:52:14;;;;;;;4.80;1.17;;;9.80;1.00;;;;;;5031353;28;20409;-74
2024/01/04 00:54:40;;;;;;;3.42;1.00;;;9.70;1.00;;;;;;5017698;28;20113;-75
2024/01/04 00:57:05;;;;;;;2.33;1.00;;;10.40;1.00;;;;;;5049995;28;20044;-72
2024/01/04 00:59:31;;;;;;;5.10;1.40;;;10.20;1.00;;;;;;5031678;28;20029;-73
2024/01/04 01:01:57;;;;;;;3.75;1.08;;;9.70;1.00;;;;;;5030652;28;20095;-73
2024/01/04 01:04:22;;;;;;;4.88;1.25;;;9.90;1.00;;;;;;5050490;28;20871;-72
2024/01/04 01:06:48;;;;;;;4.03;1.30;;;10.20;1.00;;;;;;5050889;28;20417;-71
2024/01/04 01:09:14;;;;;;;3.13;0.80;;;9.50;1.00;;;;;;5033421;28;20049;-73
2024/01/04 01:11:39;;;;;;;3.60;0.80;;;9.80;1.00;;;;;;5032922;28;20041;-75
2024/01/04 01:14:05;;;;;;;4.50;1.20;;;10.10;1.00;;;;;;5047511;28;20041;-72
2024/01/04 01:16:31;;;;;;;3.63;1.13;;;10.00;1.00;;;;;;5033373;28;20045;-73
2024/01/04 01:18:57;;;;;;;6.07;1.48;;;10.10;1.00;;;;;;5059994;28;20038;-75
2024/01/04 01:21:22;;;;;;;2.92;0.90;;;9.70;1.00;;;;;;5020020;28;20037;-74
2024/01/04 01:23:48;;;;;;;4.47;1.20;;;10.00;1.00;;;;;;5033065;28;20132;-74
2024/01/04 01:26:14;;;;;;;1.70;0.80;;;10.10;1.00;;;;;;5049981;28;20518;-73
2024/01/04 01:28:39;;;;;;;2.83;1.00;;;9.70;1.00;;;;;;5051581;28;20397;-73
2024/01/04 01:31:05;;;;;;;4.45;1.00;;;10.10;99.90;;;;;;5033282;28;20053;-74
2024/01/04 01:33:31;;;;;;;3.60;1.10;;;9.80;99.90;;;;;;5046982;28;20045;-73
2024/01/04 01:35:56;;;;;;;3.95;1.20;;;9.60;1.00;;;;;;5050342;28;20091;-75
2024/01/04 01:38:23;;;;;;;4.32;1.50;;;9.90;1.00;;;;;;5033608;28;20044;-78
2024/01/04 01:40:48;;;;;;;6.10;1.63;;;9.80;1.00;;;;;;5049350;28;20072;-73
2024/01/04 01:43:14;;;;;;;4.35;1.42;;;9.70;1.00;;;;;;5048409;28;20438;-73
2024/01/04 01:45:40;;;;;;;2.60;1.10;;;9.10;1.00;;;;;;5033184;28;20067;-72
2024/01/04 01:48:06;;;;;;;2.47;1.00;;;9.80;1.00;;;;;;5033407;28;20037;-73
2024/01/04 01:50:33;;;;;;;3.80;1.13;;;9.30;1.00;;;;;;5073607;28;20124;-73
2024/01/04 01:52:59;;;;;;;4.75;1.05;;;9.60;1.00;;;;;;5040928;28;20045;-74
2024/01/04 01:55:25;;;;;;;6.22;1.17;;;9.00;1.00;;;;;;5031841;28;20049;-72
2024/01/04 01:57:51;;;;;;;4.35;1.10;;;9.20;1.00;;;;;;5049804;28;20052;-74
2024/01/04 02:00:18;;;;;;;4.13;1.23;;;9.20;1.00;;;;;;5048693;28;20037;-74
2024/01/04 02:02:48;;;;;;;3.80;1.10;;;9.60;1.00;;;;;;5016536;28;20037;-74
2024/01/04 02:05:14;;;;;;;4.50;1.20;;;9.20;1.00;;;;;;5030487;28;20225;-74
2024/01/04 02:07:40;;;;;;;3.70;0.98;;;9.00;1.00;;;;;;5032749;28;20111;-71
2024/01/04 02:10:07;;;;;;;4.70;1.00;;;9.40;1.00;;;;;;5032504;28;20043;-75
2024/01/04 02:12:33;;;;;;;2.78;0.90;;;9.00;1.00;;;;;;5049064;28;20067;-73
2024/01/04 02:14:58;;;;;;;5.88;1.17;;;8.90;1.00;;;;;;5064408;28;20493;-74
2024/01/04 02:17:28;;;;;;;2.60;0.80;;;9.20;12.50;;;;;;5064805;28;20129;-75
2024/01/04 02:19:56;;;;;;;2.75;1.00;;;8.80;1.00;;;;;;5049308;28;20036;-79
2024/01/04 02:22:22;;;;;;;4.40;1.30;;;9.20;1.00;;;;;;5032217;28;20037;-73
2024/01/04 02:24:48;;;;;;;2.50;1.00;;;9.10;1.00;;;;;;5045414;28;20358;-75
2024/01/04 02:27:14;;;;;;;2.38;0.90;;;9.00;1.00;;;;;;5048105;28;20102;-76
2024/01/04 02:29:39;;;;;;;4.75;1.25;;;9.20;1.00;;;;;;5049046;28;20127;-76
2024/01/04 02:32:05;;;;;;;4.13;1.10;;;8.70;2.20;;;;;;5048067;28;20057;-74
2024/01/04 02:34:32;;;;;;;3.28;1.00;;;8.90;10.50;;;;;;5031660;28;20052;-72
2024/01/04 02:36:58;;;;;;;3.88;1.15;;;8.80;12.40;;;;;;5012754;28;20060;-76
2024/01/04 02:39:23;;;;;;;4.15;1.10;;;9.20;20.30;;;;;;5056293;28;20033;-77
2024/01/04 02:41:49;;;;;;;3.00;1.05;;;9.00;48.80;;;;;;5048550;28;20045;-76
2024/01/04 02:44:15;;;;;;;2.38;0.90;;;9.20;65.50;;;;;;5065071;28;20049;-73
2024/01/04 02:46:41;;;;;;;2.35;1.00;;;9.00;77.20;;;;;;5048272;28;20086;-74
2024/01/04 02:49:06;;;;;;;3.45;1.00;;;9.30;93.50;;;;;;5031898;28;20110;-73
2024/01/04 02:51:32;;;;;;;4.57;1.20;;;9.00;99.80;;;;;;5047919;28;20485;-72
2024/01/04 02:53:58;;;;;;;2.63;1.10;;;8.80;99.90;;;;;;5031482;28;20436;-76
2024/01/04 02:56:24;;;;;;;3.75;1.20;;;8.70;99.90;;;;;;5031454;28;20481;-73
2024/01/04 02:58:50;;;;;;;4.53;1.20;;;8.80;99.90;;;;;;5048595;28;20037;-75
2024/01/04 03:01:22;;;;;;;2.05;1.00;;;9.10;99.90;;;;;;5031521;28;20495;-74
2024/01/04 03:03:52;;;;;;;4.53;1.20;;;8.60;99.90;;;;;;5048466;28;20120;-75
2024/01/04 03:06:29;;;;;;;2.53;1.10;;;9.10;99.90;;;;;;5028395;28;20444;-74
2024/01/04 03:08:55;;;;;;;3.70;1.00;;;8.70;99.90;;;;;;5019940;28;20053;-74
2024/01/04 03:11:21;;;;;;;3.95;1.13;;;8.90;99.90;;;;;;5030595;28;20080;-72
2024/01/04 03:13:47;;;;;;;2.28;0.95;;;8.80;99.90;;;;;;5065352;28;20083;-77
2024/01/04 03:16:18;;;;;;;3.80;1.13;;;8.80;99.90;;;;;;5031875;28;20076;-75
2024/01/04 03:18:44;;;;;;;3.03;1.30;;;9.20;99.90;;;;;;5080821;28;20040;-77
2024/01/04 03:21:10;;;;;;;3.38;0.88;;;8.80;99.90;;;;;;5031641;28;20035;-73
2024/01/04 03:23:35;;;;;;;1.77;0.90;;;9.20;99.90;;;;;;5081563;28;20086;-72
2024/01/04 03:26:01;;;;;;;3.15;0.95;;;8.80;99.90;;;;;;5065126;28;20041;-76
2024/01/04 03:28:27;;;;;;;3.25;1.02;;;8.60;99.90;;;;;;5080175;28;20056;-73
2024/01/04 03:30:52;;;;;;;3.53;1.08;;;8.90;94.50;;;;;;5047511;28;20049;-75
2024/01/04 03:33:18;;;;;;;2.22;1.10;;;9.00;88.30;;;;;;5064892;28;20056;-72
2024/01/04 03:35:44;;;;;;;2.63;1.00;;;8.50;87.70;;;;;;5064934;28;20052;-75
2024/01/04 03:38:10;;;;;;;3.03;1.00;;;8.50;80.00;;;;;;5081801;28;20045;-73
2024/01/04 03:40:35;;;;;;;3.00;1.00;;;8.60;39.50;;;;;;5065908;28;20045;-75
2024/01/04 03:43:02;;;;;;;3.25;0.80;;;9.00;20.70;;;;;;5031498;28;20041;-72
2024/01/04 03:45:28;;;;;;;2.40;0.73;;;8.50;1.00;;;;;;5076022;28;20381;-76
2024/01/04 03:47:54;;;;;;;2.08;0.77;;;8.90;10.90;;;;;;5028358;28;20037;-76
2024/01/04 03:50:19;;;;;;;2.55;1.10;;;8.90;17.20;;;;;;5038654;28;20047;-74
2024/01/04 03:52:45;;;;;;;3.88;1.13;;;8.80;20.60;;;;;;5056071;28;20512;-72
2024/01/04 03:55:11;;;;;;;2.60;1.10;;;8.60;44.00;;;;;;5081733;28;20041;-75
2024/01/04 03:57:36;;;;;;;1.55;0.90;;;8.90;24.80;;;;;;5064537;28;20109;-73
2024/01/04 04:00:03;;;;;;;7.68;1.70;;;8.90;33.00;;;;;;5061872;28;20052;-72
2024/01/04 04:02:29;;;;;;;1.10;0.80;;;8.90;43.00;;;;;;5031125;28;20425;-77
2024/01/04 04:04:57;;;;;;;3.33;1.10;;;8.60;49.20;;;;;;5061940;28;20039;-75
2024/01/04 04:07:23;;;;;;;3.38;1.25;;;8.90;36.60;;;;;;5045044;28;20045;-75
2024/01/04 04:09:49;;;;;;;3.22;1.10;;;8.90;21.00;;;;;;5050889;28;20044;-74
2024/01/04 04:12:15;;;;;;;5.10;1.35;;;9.00;40.70;;;;;;5050815;28;20043;-76
2024/01/04 04:14:44;;;;;;;2.78;1.10;;;8.80;35.40;;;;;;5051455;28;20083;-74
2024/01/04 04:17:09;;;;;;;2.75;1.08;;;8.60;41.60;;;;;;5035145;28;20367;-75
2024/01/04 04:19:35;;;;;;;2.75;1.00;;;8.50;47.30;;;;;;5034813;28;20037;-73
2024/01/04 04:22:01;;;;;;;3.35;1.20;;;8.60;58.70;;;;;;5050269;28;20071;-75
2024/01/04 04:24:26;;;;;;;1.85;0.98;;;8.40;47.40;;;;;;5034338;28;20103;-76
2024/01/04 04:26:52;;;;;;;3.00;1.25;;;8.40;40.80;;;;;;5034745;28;20055;-72
2024/01/04 04:29:18;;;;;;;4.85;1.42;;;8.70;25.80;;;;;;5001879;28;20131;-75
2024/01/04 04:31:43;;;;;;;3.70;1.13;;;8.80;28.30;;;;;;5047202;28;20045;-74
2024/01/04 04:34:09;;;;;;;3.50;1.00;;;8.90;16.90;;;;;;5050592;28;20103;-74
2024/01/04 04:36:35;;;;;;;2.72;1.20;;;8.50;14.70;;;;;;5050626;28;20127;-75
2024/01/04 04:39:02;;;;;;;2.83;1.20;;;8.60;9.90;;;;;;5034487;28;20048;-74
2024/01/04 04:41:28;;;;;;;2.50;1.05;;;8.70;14.20;;;;;;5066849;28;20116;-78
2024/01/04 04:43:54;;;;;;;1.73;1.00;;;8.90;1.00;;;;;;5034015;28;20110;-71
2024/01/04 04:46:20;;;;;;;3.60;1.08;;;8.80;1.00;;;;;;5051011;28;20693;-74
2024/01/04 04:48:46;;;;;;;2.90;1.05;;;8.40;1.00;;;;;;5051053;28;20649;-76
2024/01/04 04:51:11;;;;;;;4.13;1.02;;;8.70;1.00;;;;;;5015316;28;20056;-74
2024/01/04 04:53:37;;;;;;;3.00;1.00;;;8.90;1.00;;;;;;5032933;28;20045;-75
2024/01/04 04:56:04;;;;;;;4.28;1.30;;;8.40;1.00;;;;;;5050361;28;20044;-75
2024/01/04 04:58:29;;;;;;;3.45;1.23;;;8.60;1.00;;;;;;5049671;28;20041;-76
2024/01/04 05:00:56;;;;;;;3.25;1.10;;;8.40;1.00;;;;;;5050379;28;20162;-76
2024/01/04 05:03:22;;;;;;;3.95;1.00;;;8.40;1.00;;;;;;5049173;28;20041;-76
2024/01/04 05:05:47;;;;;;;3.92;1.38;;;8.40;1.00;;;;;;5032709;28;20058;-76
2024/01/04 05:08:13;;;;;;;2.40;1.13;;;8.40;1.00;;;;;;5050480;28;20041;-75
2024/01/04 05:10:39;;;;;;;5.38;1.70;;;9.00;1.00;;;;;;5033438;28;20041;-73
2024/01/04 05:13:05;;;;;;;4.00;1.05;;;9.00;1.00;;;;;;5050036;28;20047;-72
2024/01/04 05:15:30;;;;;;;3.05;1.35;;;8.50;1.00;;;;;;5032134;28;20134;-72
2024/01/04 05:17:56;;;;;;;4.72;1.50;;;9.00;1.00;;;;;;5033634;28;20476;-73
2024/01/04 05:20:22;;;;;;;3.90;1.30;;;8.80;1.00;;;;;;5050081;28;20549;-75
2024/01/04 05:22:48;;;;;;;2.13;1.20;;;9.00;1.40;;;;;;5029875;28;20178;-73
2024/01/04 05:25:14;;;;;;;3.38;1.30;;;8.70;1.00;;;;;;5049599;28;20661;-75
2024/01/04 05:27:40;;;;;;;3.35;1.23;;;8.80;1.00;;;;;;5083385;28;20041;-72
2024/01/04 05:30:11;;;;;;;4.10;1.40;;;8.30;1.00;;;;;;5050423;28;20477;-72
2024/01/04 05:32:38;;;;;;;2.05;1.00;;;8.30;1.00;;;;;;5049383;28;20067;-72
2024/01/04 05:35:04;;;;;;;4.20;1.30;;;8.60;1.00;;;;;;5049743;28;20511;-73
2024/01/04 05:37:30;;;;;;;2.90;1.25;;;8.70;1.00;;;;;;5034411;28;20045;-72
2024/01/04 05:39:56;;;;;;;4.40;1.13;;;8.10;1.00;;;;;;5033941;28;20041;-73
2024/01/04 05:42:21;;;;;;;5.55;1.33;;;8.40;1.00;;;;;;5033171;28;20041;-75
2024/01/04 05:44:47;;;;;;;3.20;1.25;;;8.50;1.00;;;;;;5057151;28;20041;-73
2024/01/04 05:47:13;;;;;;;3.85;1.40;;;8.10;1.00;;;;;;5046832;28;20060;-74
2024/01/04 05:49:38;;;;;;;2.92;1.10;;;8.50;1.00;;;;;;5082910;28;20136;-74
2024/01/04 05:52:04;;;;;;;3.45;1.38;;;8.00;1.00;;;;;;5066521;28;20041;-75
2024/01/04 05:54:30;;;;;;;3.00;1.45;;;7.90;1.00;;;;;;5079593;28;20489;-72
2024/01/04 05:56:56;;;;;;;3.83;1.20;;;8.30;1.00;;;;;;5048829;28;20059;-77
2024/01/04 05:59:24;;;;;;;3.40;1.15;;;8.40;1.00;;;;;;5033141;28;20458;-75
2024/01/04 06:01:51;;;;;;;2.60;1.40;;;7.70;1.00;;;;;;5033368;28;20469;-75
2024/01/04 06:04:17;;;;;;;3.88;1.15;;;7.70;1.00;;;;;;5048148;28;20489;-73
2024/01/04 06:06:42;;;;;;;3.70;1.20;;;7.70;1.00;;;;;;5048588;28;20041;-72
2024/01/04 06:09:08;;;;;;;3.05;1.00;;;7.90;1.00;;;;;;5049439;28;20373;-73
2024/01/04 06:11:38;;;;;;;3.50;1.30;;;7.70;1.00;;;;;;5048724;28;20070;-76
2024/01/04 06:14:04;;;;;;;3.25;1.40;;;8.30;6.80;;;;;;5031930;28;20044;-72
2024/01/04 06:16:29;;;;;;;3.50;1.48;;;8.10;17.00;;;;;;5047449;28;20091;-74
2024/01/04 06:18:55;;;;;;;3.50;1.38;;;7.70;26.40;;;;;;5081960;28;20032;-74
2024/01/04 06:21:21;;;;;;;2.78;1.27;;;7.80;39.50;;;;;;5049114;28;20124;-74
2024/01/04 06:23:46;;;;;;;3.50;1.30;;;7.90;61.40;;;;;;5037959;28;20038;-75
2024/01/04 06:26:20;;;;;;;4.55;1.38;;;7.50;85.10;;;;;;5012495;28;20077;-76
2024/01/04 06:28:46;;;;;;;2.25;1.20;;;7.60;99.90;;;;;;5047471;28;20037;-72
2024/01/04 06:31:12;;;;;;;4.43;1.63;;;7.60;99.90;;;;;;5082455;28;20520;-77
2024/01/04 06:33:38;;;;;;;5.00;1.10;;;7.50;99.90;;;;;;5031926;28;20056;-75
2024/01/04 06:36:06;;;;;;;3.63;1.25;;;7.80;99.90;;;;;;5032313;28;20045;-75
2024/01/04 06:38:34;;;;;;;2.35;1.30;;;7.90;99.90;;;;;;5046493;28;20079;-74
2024/01/04 06:41:00;;;;;;;2.25;1.40;;;7.20;99.90;;;;;;5032556;28;20033;-74
2024/01/04 06:43:26;;;;;;;2.90;1.17;;;7.80;99.90;;;;;;5031980;28;20477;-74
2024/01/04 06:45:52;;;;;;;2.92;1.27;;;7.20;99.90;;;;;;5031633;28;20053;-75
2024/01/04 06:48:18;;;;;;;2.50;1.20;;;7.80;99.90;;;;;;5013819;28;20047;-76
2024/01/04 06:50:44;;;;;;;2.85;1.13;;;7.70;99.90;;;;;;5031998;28;20081;-75
2024/01/04 06:53:14;;;;;;;4.43;1.23;;;7.60;99.90;;;;;;5048520;28;20071;-75
2024/01/04 06:55:40;;;;;;;1.77;1.05;;;8.00;99.90;;;;;;5064372;28;20041;-74
2024/01/04 06:58:08;;;;;;;2.28;1.15;;;7.50;99.90;;;;;;5047707;28;20033;-74
2024/01/04 07:00:34;;;;;;;3.17;1.15;;;7.60;99.90;;;;;;5015600;28;20044;-74
2024/01/04 07:02:59;;;;;;;2.72;1.25;;;7.30;99.90;;;;;;5031774;28;20025;-71
2024/01/04 07:05:25;;;;;;;3.30;1.20;;;8.00;99.90;;;;;;5065186;28;20041;-72
2024/01/04 07:07:51;;;;;;;3.22;1.30;;;8.00;99.90;;;;;;5046775;28;20119;-72
2024/01/04 07:10:16;;;;;;;2.22;1.40;;;7.40;99.90;;;;;;5046532;28;20044;-71
2024/01/04 07:12:43;;;;;;;2.08;0.90;;;7.80;99.90;;;;;;5047690;28;20033;-74
2024/01/04 07:15:12;;;;;;;3.17;1.25;;;7.60;99.90;;;;;;5048761;28;20175;-73
2024/01/04 07:17:38;;;;;;;1.90;1.27;;;7.30;99.90;;;;;;5048282;28;20041;-74
2024/01/04 07:20:05;;;;;;;3.97;1.40;;;7.50;99.90;;;;;;5064903;28;20041;-74
2024/01/04 07:22:31;;;;;;;2.55;1.20;;;7.90;99.90;;;;;;5048394;28;20516;-70
2024/01/04 07:24:57;;;;;;;2.88;1.63;;;7.70;99.90;;;;;;5064129;28;20033;-72
2024/01/04 07:27:22;;;;;;;3.38;1.35;;;7.80;99.90;;;;;;5065138;28;20049;-72
2024/01/04 07:29:48;;;;;;;2.15;1.27;;;7.20;99.90;;;;;;5045028;28;20127;-75
2024/01/04 07:32:18;;;;;;;4.72;1.45;;;7.30;99.90;;;;;;5031712;28;20123;-74
2024/01/04 07:34:44;;;;;;;3.55;1.40;;;7.80;99.90;;;;;;5047258;28;20049;-75
2024/01/04 07:37:11;;;;;;;2.30;1.35;;;7.90;99.90;;;;;;5031869;28;20422;-72
2024/01/04 07:39:37;;;;;;;3.92;1.30;;;7.70;99.90;;;;;;5049411;28;20037;-75
2024/01/04 07:42:03;;;;;;;2.88;1.40;;;7.60;99.90;;;;;;5034522;28;20135;-78
2024/01/04 07:44:29;;;;;;;4.18;1.17;;;7.40;99.90;;;;;;5051655;28;20095;-74
2024/01/04 07:46:55;;;;;;;4.53;1.95;;;7.40;99.90;;;;;;5034842;28;20501;-71
2024/01/04 07:49:21;;;;;;;3.55;1.17;;;7.30;99.90;;;;;;5033651;28;20049;-71
2024/01/04 07:51:46;;;;;;;4.38;1.50;;;8.00;99.90;;;;;;5050221;28;20041;-72
2024/01/04 07:54:12;;;;;;;3.45;1.30;;;7.30;99.90;;;;;;5051604;28;20047;-77
2024/01/04 07:56:38;;;;;;;4.18;1.60;;;8.00;99.90;;;;;;5052353;28;20451;-71
2024/01/04 07:59:04;;;;;;;4.47;1.48;;;8.00;99.90;;;;;;5054790;28;20133;-72
2024/01/04 08:01:29;;;;;;;3.50;1.58;;;7.40;99.90;;;;;;5067646;28;20041;-75
2024/01/04 08:03:55;;;;;;;2.95;1.08;;;7.40;99.90;;;;;;5068536;28;20453;-76
2024/01/04 08:06:21;;;;;;;5.88;1.55;;;7.90;99.90;;;;;;5050967;28;20076;-74
2024/01/04 08:08:47;;;;;;;3.83;1.00;;;7.40;99.90;;;;;;5051115;28;20487;-73
2024/01/04 08:11:12;;;;;;;3.05;1.20;;;7.80;99.90;;;;;;5032466;28;20106;-72
2024/01/04 08:13:38;;;;;;;5.50;1.48;;;7.40;99.90;;;;;;5051383;28;20468;-72
2024/01/04 08:16:04;;;;;;;3.83;1.88;;;7.70;99.90;;;;;;5014182;28;20043;-78
2024/01/04 08:18:31;;;;;;;3.20;1.55;;;7.20;99.90;;;;;;5064885;28;20417;-76
2024/01/04 08:20:56;;;;;;;4.00;1.17;;;7.80;99.90;;;;;;5034370;28;20079;-74
2024/01/04 08:23:22;;;;;;;4.93;1.33;;;7.30;99.90;;;;;;5050238;28;20780;-73
2024/01/04 08:25:48;;;;;;;6.90;1.58;;;7.20;99.90;;;;;;5046937;28;20045;-77
2024/01/04 08:28:14;;;;;;;3.85;1.33;;;7.20;99.90;;;;;;5049878;28;20036;-77
2024/01/04 08:30:40;;;;;;;3.67;1.08;;;7.90;99.90;;;;;;5049943;28;20068;-74
2024/01/04 08:33:05;;;;;;;2.83;1.30;;;7.60;99.90;;;;;;5049413;28;20155;-73
2024/01/04 08:35:31;;;;;;;3.63;1.42;;;7.70;99.90;;;;;;5050257;28;20040;-72
2024/01/04 08:37:57;;;;;;;2.45;1.20;;;7.50;99.90;;;;;;5033393;28;20033;-76
2024/01/04 08:40:22;;;;;;;6.75;1.45;;;7.80;99.90;;;;;;5032594;28;20124;-77
2024/01/04 08:42:48;;;;;;;2.03;1.10;;;7.90;99.90;;;;;;5047750;28;20037;-74
2024/01/04 08:45:14;;;;;;;3.70;1.33;;;8.10;99.90;;;;;;5048583;28;20053;-77
2024/01/04 08:47:40;;;;;;;4.30;1.40;;;8.10;99.90;;;;;;5047422;28;20033;-73
2024/01/04 08:50:07;;;;;;;5.07;1.30;;;7.50;99.90;;;;;;5032806;28;20116;-73
2024/01/04 08:52:33;;;;;;;5.20;1.20;;;7.80;99.90;;;;;;5056078;28;20052;-75
2024/01/04 08:54:59;;;;;;;2.65;1.10;;;7.50;99.90;;;;;;5058765;28;20090;-73
2024/01/04 08:57:25;;;;;;;4.65;1.20;;;7.70;99.90;;;;;;5030873;28;20897;-72
2024/01/04 08:59:51;;;;;;;3.40;1.30;;;8.30;99.90;;;;;;5031515;28;20426;-74
2024/01/04 09:02:17;;;;;;;3.38;1.38;;;8.20;99.90;;;;;;5030725;28;20037;-74
2024/01/04 09:04:43;;;;;;;3.63;1.15;;;7.70;99.90;;;;;;5048770;28;20040;-72
2024/01/04 09:07:09;;;;;;;3.85;1.20;;;8.40;99.90;;;;;;5047522;28;20045;-73
2024/01/04 09:09:35;;;;;;;2.63;1.42;;;8.40;99.90;;;;;;5033098;28;20048;-78
2024/01/04 09:12:01;;;;;;;3.70;1.23;;;8.40;99.90;;;;;;5032439;28;20122;-75
2024/01/04 09:14:27;;;;;;;4.30;1.10;;;7.90;99.90;;;;;;5027701;28;20045;-79
2024/01/04 09:16:52;;;;;;;3.42;1.33;;;8.30;99.90;;;;;;5028910;28;20044;-80
2024/01/04 09:19:20;;;;;;;2.42;1.15;;;8.30;99.90;;;;;;5049631;28;20416;-78
2024/01/04 09:21:50;;;;;;;2.30;1.10;;;8.20;99.90;;;;;;5032087;28;20571;-77
2024/01/04 09:24:20;;;;;;;4.43;1.10;;;8.60;99.90;;;;;;5032020;28;20033;-78
2024/01/04 09:26:46;;;;;;;3.25;1.27;;;8.70;96.10;;;;;;5024127;28;20087;-75
2024/01/04 09:29:16;;;;;;;3.05;1.10;;;8.50;74.80;;;;;;5047838;28;20500;-74
2024/01/04 09:31:43;;;;;;;1.33;1.00;;;8.60;24.20;;;;;;5055355;28;20113;-76
2024/01/04 09:34:08;;;;;;;3.05;1.20;;;8.30;1.00;;;;;;5047355;28;20045;-76
2024/01/04 09:36:35;;;;;;;2.05;1.13;;;8.70;1.00;;;;;;5032406;28;20041;-74
2024/01/04 09:39:04;;;;;;;5.25;1.10;;;8.90;1.00;;;;;;5046700;28;20052;-77
2024/01/04 09:41:35;;;;;;;2.05;1.30;;;9.40;1.00;;;;;;5049837;28;20048;-77
2024/01/04 09:44:04;;;;;;;1.90;0.93;;;10.00;1.00;;;;;;5032768;28;20053;-76
2024/01/04 09:46:34;;;;;;;2.17;0.85;;;10.10;99.90;;;;;;5046130;28;20746;-75
2024/01/04 09:49:01;;;;;;;2.85;1.08;;;10.20;99.90;;;;;;5045161;28;20067;-74
2024/01/04 09:51:37;;;;;;;4.47;1.50;;;10.10;99.90;;;;;;5039438;28;20734;-73
2024/01/04 09:54:03;;;;;;;2.67;1.00;;;9.30;99.90;;;;;;5054710;28;20071;-76
2024/01/04 09:56:30;;;;;;;3.42;1.00;;;9.70;99.90;;;;;;5031384;28;20049;-76
2024/01/04 09:58:56;;;;;;;2.15;1.00;;;9.70;99.90;;;;;;5029625;28;20037;-73
2024/01/04 10:01:30;;;;;;;3.20;1.20;;;9.90;99.90;;;;;;5048679;28;20044;-72
2024/01/04 10:04:03;;;;;;;3.38;0.80;;;9.70;99.90;;;;;;5048221;28;20043;-73
2024/01/04 10:06:35;;;;;;;3.15;1.10;;;10.20;99.90;;;;;;5049463;28;20416;-79
2024/01/04 10:09:15;;;;;;;3.92;1.40;;;10.30;99.90;;;;;;5045583;28;20417;-78
2024/01/04 10:12:05;;;;;;;1.85;0.80;;;10.20;99.90;;;;;;5048886;28;20049;-77
2024/01/04 10:14:31;;;;;;;2.25;1.00;;;9.70;99.90;;;;;;5048096;28;20120;-79
2024/01/04 10:16:57;;;;;;;3.50;1.00;;;10.10;99.90;;;;;;5048089;28;20384;-75
2024/01/04 10:19:28;;;;;;;1.80;0.98;;;9.80;99.90;;;;;;5046177;28;20041;-79
2024/01/04 10:22:03;;;;;;;4.65;1.13;;;9.90;99.90;;;;;;5047036;28;20041;-78
2024/01/04 10:24:30;;;;;;;;;;;11.00;99.90;;;;;;5032491;28;20087;-77
2024/01/04 10:27:05;;;;;;;3.17;1.50;;;10.60;78.80;;;;;;5030169;28;20612;-78
2024/01/04 10:29:35;;;;;;;2.13;0.90;;;10.80;99.00;;;;;;5046476;28;20417;-77
2024/01/04 10:32:05;;;;;;;4.55;1.15;;;11.00;99.90;;;;;;5021128;28;20072;-76
2024/01/04 10:34:35;;;;;;;2.53;1.00;;;10.00;99.90;;;;;;5030300;28;20045;-77
2024/01/04 10:37:17;;;;;;;3.20;1.15;;;9.50;99.90;;;;;;5036768;28;20470;-73
2024/01/04 10:39:55;;;;;;;3.17;0.90;;;9.60;99.90;;;;;;5054633;28;20116;-76
2024/01/04 10:42:22;;;;;;;2.90;1.10;;;9.20;99.90;;;;;;5055293;28;20040;-76
2024/01/04 10:44:55;;;;;;;1.58;0.85;;;9.00;99.90;;;;;;5011238;28;20453;-75
2024/01/04 10:47:21;;;;;;;4.57;1.42;;;9.40;99.90;;;;;;5013533;28;20041;-76
2024/01/04 10:49:48;;;;;;;2.42;1.23;;;10.00;99.90;;;;;;5046769;28;20045;-81
2024/01/04 10:52:21;;;;;;;2.80;1.10;;;9.70;99.90;;;;;;5050984;28;20091;-78
2024/01/04 10:54:51;;;;;;;2.40;1.05;;;10.90;99.90;;;;;;5047191;28;20111;-74
2024/01/04 10:57:18;;;;;;;3.20;0.93;;;10.90;99.90;;;;;;5052697;28;20072;-78
2024/01/04 10:59:45;;;;;;;2.10;0.80;;;11.50;98.00;;;;;;5016884;28;20044;-78
2024/01/04 11:02:15;;;;;;;3.38;1.05;;;11.20;35.00;;;;;;5046484;28;20123;-77
2024/01/04 11:04:41;;;;;;;1.13;0.70;;;10.80;57.50;;;;;;5059855;28;20040;-76
2024/01/04 11:07:07;;;;;;;1.60;0.90;;;10.30;82.70;;;;;;5031093;28;20123;-76
2024/01/04 11:09:34;;;;;;;1.38;0.80;;;10.40;99.90;;;;;;5044754;28;20109;-76
2024/01/04 11:12:02;;;;;;;1.88;0.90;;;10.50;97.00;;;;;;5029612;28;20037;-77
2024/01/04 11:14:28;;;;;;;2.40;0.93;;;10.90;90.30;;;;;;5048314;28;20119;-76
2024/01/04 11:17:09;;;;;;;3.20;0.95;;;10.80;98.80;;;;;;5050568;28;20573;-81
2024/01/04 11:19:46;;;;;;;2.75;0.95;;;10.40;99.90;;;;;;5074262;28;20580;-76
2024/01/04 11:22:24;;;;;;;1.80;0.90;;;9.90;99.90;;;;;;5065379;28;20657;-79
2024/01/04 11:25:21;;;;;;;3.03;1.00;;;9.80;99.90;;;;;;5073508;28;20033;-76
2024/01/04 11:27:47;;;;;;;2.22;0.80;;;9.60;99.90;;;;;;5051972;28;20041;-81
2024/01/04 11:30:14;;;;;;;2.15;1.00;;;9.50;99.90;;;;;;5043552;28;20060;-75
2024/01/04 11:32:43;;;;;;;1.60;0.95;;;9.60;99.90;;;;;;5032758;28;20052;-76
2024/01/04 11:35:11;;;;;;;2.28;0.95;;;9.40;99.90;;;;;;5082794;28;20045;-77
2024/01/04 11:37:36;;;;;;;2.55;1.17;;;9.30;99.90;;;;;;5051737;28;20049;-76
2024/01/04 11:40:07;;;;;;;2.28;1.05;;;9.50;99.90;;;;;;5034703;28;20546;-82
2024/01/04 11:42:37;;;;;;;4.72;2.05;;;9.20;99.90;;;;;;5050892;28;20080;-77
2024/01/04 11:45:04;;;;;;;1.63;1.00;;;9.40;97.40;;;;;;5032903;28;20057;-76
2024/01/04 11:47:39;;;;;;;1.38;1.05;;;9.70;99.90;;;;;;5050494;28;20072;-76
2024/01/04 11:50:16;;;;;;;2.10;0.98;;;9.40;99.90;;;;;;5049204;28;20041;-77
2024/01/04 11:52:48;;;;;;;2.72;1.00;;;9.60;99.90;;;;;;5051504;28;20044;-76
2024/01/04 11:55:29;;;;;;;1.77;1.05;;;9.70;99.90;;;;;;5051057;28;20102;-79
2024/01/04 11:58:28;;;;;;;3.00;1.00;;;9.40;99.90;;;;;;5035425;28;20127;-76
2024/01/04 12:00:56;;;;;;;3.40;1.17;;;9.50;99.50;;;;;;5036558;28;20112;-77
2024/01/04 12:03:27;;;;;;;2.00;0.95;;;9.10;98.80;;;;;;5034516;28;20088;-76
2024/01/04 12:05:55;;;;;;;3.85;1.00;;;9.30;99.90;;;;;;5034889;28;20154;-77
2024/01/04 12:08:29;;;;;;;2.38;1.00;;;9.20;99.90;;;;;;5050577;28;20045;-74
2024/01/04 12:11:00;;;;;;;1.80;1.00;;;9.20;99.90;;;;;;5032350;28;20126;-76
2024/01/04 12:13:27;;;;;;;2.58;0.90;;;9.40;99.90;;;;;;5051009;28;20048;-73
2024/01/04 12:15:52;;;;;;;3.50;1.00;;;9.10;99.90;;;;;;5084750;28;20152;-76
2024/01/04 12:18:18;;;;;;;1.90;0.90;;;9.20;99.90;;;;;;5084747;28;20155;-76
2024/01/04 12:20:45;;;;;;;2.28;1.10;;;9.30;99.90;;;;;;5083031;28;20033;-78
2024/01/04 12:23:12;;;;;;;3.13;1.08;;;9.30;99.90;;;;;;5033879;28;20174;-78
2024/01/04 12:25:39;;;;;;;3.00;1.33;;;9.10;99.90;;;;;;5050014;28;20080;-80
2024/01/04 12:28:06;;;;;;;2.47;1.10;;;9.10;99.90;;;;;;5049716;28;20497;-79
2024/01/04 12:30:32;;;;;;;3.65;1.10;;;9.10;99.90;;;;;;5031013;28;20037;-74
2024/01/04 12:33:00;;;;;;;2.30;1.08;;;9.20;75.70;;;;;;5033900;28;20092;-76
2024/01/04 12:35:27;;;;;;;2.70;1.08;;;9.10;78.30;;;;;;5033408;28;20094;-75
2024/01/04 12:37:59;;;;;;;2.17;1.05;;;9.60;87.00;;;;;;5067326;28;20044;-76
2024/01/04 12:40:25;;;;;;;2.72;1.02;;;9.30;64.90;;;;;;5076887;28;20048;-76
2024/01/04 12:42:51;;;;;;;2.15;0.90;;;9.40;72.40;;;;;;5050665;28;20405;-82
2024/01/04 12:45:17;;;;;;;2.70;1.20;;;9.50;66.90;;;;;;5013449;28;20041;-80
2024/01/04 12:47:43;;;;;;;2.92;1.13;;;9.50;43.40;;;;;;5037915;28;20053;-76
2024/01/04 12:50:12;;;;;;;1.52;0.95;;;9.30;26.00;;;;;;5048839;28;20139;-75
2024/01/04 12:52:39;;;;;;;5.53;1.20;;;9.20;40.20;;;;;;5048665;28;20055;-77
2024/01/04 12:55:05;;;;;;;4.28;1.55;;;9.20;76.80;;;;;;5010990;28;20122;-75
2024/01/04 12:57:33;;;;;;;2.85;1.17;;;9.10;99.30;;;;;;5041084;28;20408;-79